This is the latest recevied weather packets stored in our database for station/object EB2BAG-11. If no packets are shown the sender has not sent any weather packets the latest 1 day(s).
| Time | Temp. | Humidity | Pressure | Rain* | Wind** | Luminosity | Snow |
|---|---|---|---|---|---|---|---|
| 1777730146 | 18.33° C | 81% | 1016.3 hPa | - | - | - | - |
| 1777726546 | 17.78° C | 74% | 1016.9 hPa | - | - | - | - |
| 1777725346 | 17.22° C | 78% | 1017.5 hPa | - | - | - | - |
| 1777724146 | 18.33° C | 79% | 1018.1 hPa | - | - | - | - |
| 1777722946 | 20° C | 72% | 1018 hPa | - | - | - | - |
| 1777721746 | 20.56° C | 67% | 1017.8 hPa | - | - | - | - |
| 1777720545 | 21.11° C | 62% | 1017.6 hPa | - | - | - | - |
| 1777719345 | 22.22° C | 53% | 1017.4 hPa | - | - | - | - |
| 1777718145 | 21.67° C | 57% | 1017 hPa | - | - | - | - |
| 1777716945 | 21.11° C | 54% | 1016.7 hPa | - | - | - | - |
| 1777715745 | 21.11° C | 55% | 1016.9 hPa | - | - | - | - |
| 1777714545 | 20.56° C | 55% | 1016.6 hPa | - | - | - | - |
| 1777713345 | 20.56° C | 55% | 1016.5 hPa | - | - | - | - |
| 1777712145 | 20.56° C | 53% | 1016.7 hPa | - | - | - | - |
| 1777710945 | 20.56° C | 54% | 1016.6 hPa | - | - | - | - |
| 1777709745 | 20.56° C | 54% | 1016.3 hPa | - | - | - | - |
| 1777708545 | 20.56° C | 55% | 1016.6 hPa | - | - | - | - |
| 1777707345 | 20° C | 55% | 1017.2 hPa | - | - | - | - |
| 1777706144 | 20° C | 55% | 1017.1 hPa | - | - | - | - |
| 1777704944 | 20° C | 55% | 1017.4 hPa | - | - | - | - |
* Rain since midnight (hover to see other rain measurements)
** Current wind speed in m/s (hover to see current wind gust speed)